Pecatonica, IL (61063)

5:35 PM CDT on August 29, 2015 (GMT -0500)
Illinois Conservation Foundation (TYCEC) | | Change Station
CLOSE
Current Station
Personal Weather Station
Location: Pecatonica, IL
Elevation: 744 ft
Nearby Weather Stations

Elev 744 ft 42.35 °N, 89.30 °W | Updated 9 seconds ago

Overcast
Overcast
69.8 °F
Feels Like 69.8 °F
N
1.4
Wind Variable Wind from NW
Gusts 2.0 mph

Today
High -- | Low -- °F
--% Chance of Precip.
Yesterday
High -- | Low -- °F
Precip. -- in
6:19 AM 7:36 PM
Full, 100% visible
Pressure 30.03 in
Visibility 10.0 miles
Clouds Overcast 2200 ft
Dew Point 66 °F
Humidity 87%
Rainfall 0.95 in
Snow Depth Not available.
UV 1 out of 12
Pollen .70 out of 12
Air Quality Not available.
Flu Activity Not available.
METAR KFEP 292215Z AUTO 00000KT 10SM OVC022 21/18 A3003 RMK AO2 T02100181
Pressure 30.03 in
Visibility 10.0 miles
Clouds Overcast 2200 ft
Dew Point 66 °F
Humidity 87%
Rainfall 0.95 in
Snow Depth Not available.
UV 1 out of 12
Pollen .70 out of 12
Air Quality Not available.
Flu Activity Not available.
METAR KFEP 292215Z AUTO 00000KT 10SM OVC022 21/18 A3003 RMK AO2 T02100181

10-Day Weather Forecast

×

Almanac

Astronomy

Aug. 29, 2015 Rise Set
Actual Time
Civil Twilight
Nautical Twilight
Astronomical Twilight
Moon
Length of Visible Light
Length of Day
Tomorrow will be .
, % of the Moon is Illuminated

Today's Extremes

State Highs State Lows

Community

WunderPhotos

Upload Photos

1,850,775 photos uploaded!

WunderBlogs® & News

Nearby

Air Quality

  Air Quality AQ Index Pollutant
Not available.

Snow Depth

Station Depth Elevation

Earthquake Activity

City Distance Mag. Time & Date
Minimum magnitude displayed is 2.5.

Coastal Water Temperatures

Place Temperature

Stations

Nearby Weather Stations

Station Location Temp. Windchill Dew Point Humidity Wind Precip. Elev Updated Type